Time;durP1;ratioP1;P1;durP2;ratioP2;P2;SDS_P1;SDS_P2;PMS_P1;PMS_P2;Temp;Humidity;BMP_temperature;BMP_pressure;BME280_temperature;BME280_humidity;BME280_pressure;Samples;Min_cycle;Max_cycle;Signal;HPM_P1;HPM_P2
2021/03/10 00:01:08;;;;;;;10.32;5.82;;;16.40;99.90;;;;;;5053118;28;20043;-65
2021/03/10 00:03:33;;;;;;;9.43;5.40;;;16.40;99.90;;;;;;5052938;28;20081;-65
2021/03/10 00:05:59;;;;;;;7.43;5.20;;;16.30;99.90;;;;;;5053027;28;20025;-64
2021/03/10 00:08:25;;;;;;;7.80;5.63;;;16.30;99.90;;;;;;5053352;28;20528;-67
2021/03/10 00:10:50;;;;;;;7.75;5.47;;;16.30;99.90;;;;;;5052978;28;20385;-63
2021/03/10 00:13:16;;;;;;;7.85;5.10;;;16.30;99.90;;;;;;5052912;28;20393;-68
2021/03/10 00:15:42;;;;;;;9.20;5.03;;;16.20;99.90;;;;;;5052770;28;20102;-65
2021/03/10 00:18:07;;;;;;;6.75;5.00;;;16.30;99.90;;;;;;5052355;28;20056;-64
2021/03/10 00:20:33;;;;;;;7.35;4.88;;;16.20;99.90;;;;;;5052270;28;20033;-65
2021/03/10 00:22:58;;;;;;;7.43;5.03;;;16.20;99.90;;;;;;5052764;28;20366;-65
2021/03/10 00:25:24;;;;;;;6.60;5.20;;;16.20;99.90;;;;;;5052854;28;20025;-64
2021/03/10 00:27:50;;;;;;;7.93;5.10;;;16.20;99.90;;;;;;5052552;28;20021;-67
2021/03/10 00:30:16;;;;;;;7.30;4.88;;;16.20;99.90;;;;;;5052320;28;20470;-64
2021/03/10 00:32:42;;;;;;;8.15;5.13;;;16.20;99.90;;;;;;5052571;28;20044;-65
2021/03/10 00:35:08;;;;;;;8.77;5.25;;;16.20;99.90;;;;;;5052469;28;20025;-67
2021/03/10 00:37:34;;;;;;;6.28;4.70;;;16.10;99.90;;;;;;5051063;28;20025;-65
2021/03/10 00:40:00;;;;;;;6.97;4.63;;;16.10;99.90;;;;;;5052343;28;20465;-67
2021/03/10 00:42:25;;;;;;;6.75;4.93;;;16.10;99.90;;;;;;5052733;28;20021;-64
2021/03/10 00:44:51;;;;;;;10.82;4.55;;;16.10;99.90;;;;;;5052027;28;20146;-66
2021/03/10 00:47:17;;;;;;;8.35;5.40;;;16.10;99.90;;;;;;5052087;28;20013;-65
2021/03/10 00:49:43;;;;;;;6.43;5.10;;;16.00;99.90;;;;;;5052033;28;20086;-68
2021/03/10 00:52:10;;;;;;;8.15;4.82;;;16.00;99.90;;;;;;5052159;28;20395;-65
2021/03/10 00:54:36;;;;;;;7.82;4.95;;;16.00;99.90;;;;;;5052189;28;20071;-64
2021/03/10 00:57:02;;;;;;;6.57;4.85;;;16.00;99.90;;;;;;5052127;28;20035;-66
2021/03/10 00:59:28;;;;;;;7.25;4.88;;;16.00;99.90;;;;;;5052239;28;20021;-65
2021/03/10 01:01:54;;;;;;;7.88;5.13;;;15.90;99.90;;;;;;5052032;28;20107;-65
2021/03/10 01:04:20;;;;;;;10.32;5.28;;;15.90;99.90;;;;;;5052143;28;20021;-64
2021/03/10 01:06:45;;;;;;;6.68;4.93;;;15.90;99.90;;;;;;5051945;28;20485;-68
2021/03/10 01:09:11;;;;;;;7.65;5.07;;;15.90;99.90;;;;;;5051992;28;20032;-68
2021/03/10 01:11:37;;;;;;;7.85;5.05;;;15.90;99.90;;;;;;5051834;28;20068;-68
2021/03/10 01:14:03;;;;;;;7.50;5.07;;;15.90;99.90;;;;;;5051831;28;20110;-68
2021/03/10 01:16:29;;;;;;;8.13;5.13;;;15.90;99.90;;;;;;5051849;28;20029;-67
2021/03/10 01:18:56;;;;;;;7.82;5.32;;;15.90;99.90;;;;;;5051819;28;20025;-64
2021/03/10 01:21:22;;;;;;;8.82;4.97;;;15.80;99.90;;;;;;5051185;28;20037;-64
2021/03/10 01:23:48;;;;;;;7.50;5.45;;;15.80;99.90;;;;;;5051264;28;20459;-64
2021/03/10 01:26:13;;;;;;;9.38;5.43;;;15.80;99.90;;;;;;5051709;28;20053;-64
2021/03/10 01:28:40;;;;;;;7.47;5.35;;;15.80;99.90;;;;;;5051750;28;20349;-67
2021/03/10 01:31:05;;;;;;;8.32;5.45;;;15.80;99.90;;;;;;5051638;28;20108;-64
2021/03/10 01:33:31;;;;;;;8.57;5.38;;;15.80;99.90;;;;;;5051925;28;20118;-66
2021/03/10 01:35:56;;;;;;;8.25;5.53;;;15.80;99.90;;;;;;5051862;28;20024;-65
2021/03/10 01:38:22;;;;;;;8.75;5.75;;;15.70;99.90;;;;;;5051582;28;20164;-66
2021/03/10 01:40:48;;;;;;;6.82;4.55;;;15.70;99.90;;;;;;5051492;28;20024;-64
2021/03/10 01:43:13;;;;;;;9.88;5.10;;;15.70;99.90;;;;;;5051587;28;20059;-64
2021/03/10 01:45:39;;;;;;;6.57;5.05;;;15.70;99.90;;;;;;5051529;28;20028;-64
2021/03/10 01:48:08;;;;;;;9.48;5.68;;;15.70;99.90;;;;;;5051305;28;20480;-64
2021/03/10 01:50:34;;;;;;;10.70;5.45;;;15.70;99.90;;;;;;5051563;28;20086;-63
2021/03/10 01:53:00;;;;;;;8.25;4.88;;;15.70;99.90;;;;;;5051889;28;20111;-65
2021/03/10 01:55:27;;;;;;;7.88;4.97;;;15.70;99.90;;;;;;5051341;28;20025;-65
2021/03/10 01:57:52;;;;;;;8.15;4.88;;;15.60;99.90;;;;;;5053500;28;20028;-65
2021/03/10 02:00:19;;;;;;;6.57;4.30;;;15.70;99.90;;;;;;5055514;28;20022;-66
2021/03/10 02:02:45;;;;;;;6.22;4.38;;;15.60;99.90;;;;;;5055302;28;20021;-64
2021/03/10 02:05:16;;;;;;;6.35;4.43;;;15.60;99.90;;;;;;5055203;28;20100;-65
2021/03/10 02:08:09;;;;;;;6.18;4.43;;;15.60;99.90;;;;;;5055285;28;20496;-65
2021/03/10 02:10:55;;;;;;;6.50;4.50;;;15.60;99.90;;;;;;5055093;28;20025;-67
2021/03/10 02:13:35;;;;;;;6.93;4.40;;;15.60;99.90;;;;;;5055179;28;20029;-67
2021/03/10 02:16:22;;;;;;;6.68;4.50;;;15.60;99.90;;;;;;5055493;28;20363;-65
2021/03/10 02:18:59;;;;;;;6.82;4.30;;;15.60;99.90;;;;;;5035108;28;20037;-66
2021/03/10 02:21:28;;;;;;;5.82;4.57;;;15.60;99.90;;;;;;5035109;28;20052;-66
2021/03/10 02:24:33;;;;;;;5.93;4.80;;;15.60;99.90;;;;;;5035059;28;20033;-66
2021/03/10 02:27:15;;;;;;;6.28;4.45;;;15.60;99.90;;;;;;5019535;28;20087;-67
2021/03/10 02:29:42;;;;;;;7.10;4.70;;;15.60;99.90;;;;;;5054797;28;20040;-66
2021/03/10 02:32:08;;;;;;;6.97;4.63;;;15.60;99.90;;;;;;5055084;28;20029;-66
2021/03/10 02:34:35;;;;;;;6.88;4.57;;;15.60;99.90;;;;;;5055031;28;20025;-67
2021/03/10 02:37:02;;;;;;;6.95;5.15;;;15.50;99.90;;;;;;5055047;28;20029;-65
2021/03/10 02:39:29;;;;;;;5.10;4.00;;;15.50;99.90;;;;;;5054724;28;20496;-64
2021/03/10 02:41:55;;;;;;;8.05;4.07;;;15.50;99.90;;;;;;5054620;28;20491;-63
2021/03/10 02:44:23;;;;;;;7.15;4.60;;;15.50;99.90;;;;;;5054529;28;20020;-67
2021/03/10 02:46:49;;;;;;;8.25;4.13;;;15.50;99.90;;;;;;5054294;28;20071;-65
2021/03/10 02:49:16;;;;;;;7.32;4.00;;;15.50;99.90;;;;;;5054468;28;20036;-65
2021/03/10 02:51:44;;;;;;;6.65;4.55;;;15.50;99.90;;;;;;5054325;28;20086;-65
2021/03/10 02:54:13;;;;;;;8.55;4.40;;;15.50;99.90;;;;;;5054387;28;20040;-67
2021/03/10 02:56:39;;;;;;;5.95;4.05;;;15.50;99.90;;;;;;5052824;28;20029;-67
2021/03/10 02:59:04;;;;;;;5.30;4.13;;;15.50;99.90;;;;;;5054193;28;20025;-66
2021/03/10 03:01:30;;;;;;;8.80;3.90;;;15.40;99.90;;;;;;5054562;28;20025;-67
2021/03/10 03:03:56;;;;;;;6.90;3.95;;;15.40;99.90;;;;;;5054264;28;20025;-66
2021/03/10 03:06:21;;;;;;;5.80;3.85;;;15.40;99.90;;;;;;5054087;28;20029;-67
2021/03/10 03:08:48;;;;;;;8.23;3.60;;;15.40;99.90;;;;;;5053769;28;20025;-67
2021/03/10 03:11:14;;;;;;;8.48;4.28;;;15.40;99.90;;;;;;5053901;28;20033;-66
2021/03/10 03:13:40;;;;;;;4.70;3.60;;;15.40;99.90;;;;;;5054129;28;20021;-67
2021/03/10 03:16:07;;;;;;;5.82;3.70;;;15.40;99.90;;;;;;5053146;28;20040;-66
2021/03/10 03:18:33;;;;;;;5.25;3.92;;;15.40;99.90;;;;;;5054154;28;20124;-66
2021/03/10 03:21:02;;;;;;;5.50;3.75;;;15.40;99.90;;;;;;5053874;28;20116;-68
2021/03/10 03:23:28;;;;;;;7.57;3.80;;;15.40;99.90;;;;;;5054080;28;20368;-67
2021/03/10 03:25:56;;;;;;;5.50;3.67;;;15.40;99.90;;;;;;5053842;28;20029;-68
2021/03/10 03:28:25;;;;;;;6.78;3.97;;;15.40;99.90;;;;;;5053827;28;20052;-69
2021/03/10 03:30:54;;;;;;;6.13;3.80;;;15.40;99.90;;;;;;5053198;28;20060;-69
2021/03/10 03:33:28;;;;;;;7.55;3.50;;;15.40;99.90;;;;;;5053332;28;20035;-69
2021/03/10 03:35:56;;;;;;;6.53;3.70;;;15.40;99.90;;;;;;5053447;28;20489;-67
2021/03/10 03:38:27;;;;;;;5.15;3.97;;;15.40;99.90;;;;;;5053569;28;20029;-69
2021/03/10 03:40:54;;;;;;;5.88;3.78;;;15.40;99.90;;;;;;5052090;28;20424;-69
2021/03/10 03:43:24;;;;;;;5.05;3.72;;;15.30;99.90;;;;;;5053484;28;20025;-69
2021/03/10 03:45:50;;;;;;;7.10;3.75;;;15.30;99.90;;;;;;5053440;28;20021;-68
2021/03/10 03:48:18;;;;;;;5.32;3.63;;;15.30;99.90;;;;;;5053356;28;20114;-67
2021/03/10 03:50:44;;;;;;;6.95;4.25;;;15.30;99.90;;;;;;5052894;28;20120;-68
2021/03/10 03:53:11;;;;;;;5.05;3.70;;;15.30;99.90;;;;;;5053636;28;20128;-66
2021/03/10 03:55:36;;;;;;;7.22;3.78;;;15.30;99.90;;;;;;5053586;28;20045;-68
2021/03/10 03:58:03;;;;;;;5.00;3.90;;;15.30;99.90;;;;;;5053277;28;20079;-68
2021/03/10 04:00:29;;;;;;;8.07;3.85;;;15.30;99.90;;;;;;5052794;28;20060;-68
2021/03/10 04:02:55;;;;;;;5.55;3.90;;;15.30;99.90;;;;;;5053145;28;20091;-68
2021/03/10 04:05:21;;;;;;;8.10;3.90;;;15.30;99.90;;;;;;5053087;28;20472;-68
2021/03/10 04:07:46;;;;;;;5.20;3.53;;;15.20;99.90;;;;;;5052976;28;20021;-67
2021/03/10 04:10:12;;;;;;;7.53;4.10;;;15.20;99.90;;;;;;5052238;28;20028;-68
2021/03/10 04:12:38;;;;;;;7.07;3.85;;;15.20;99.90;;;;;;5053104;28;20120;-68
2021/03/10 04:15:04;;;;;;;7.28;4.07;;;15.20;99.90;;;;;;5052889;28;20031;-66
2021/03/10 04:17:30;;;;;;;7.03;3.28;;;15.20;99.90;;;;;;5052822;28;20028;-67
2021/03/10 04:19:55;;;;;;;4.57;3.15;;;15.20;99.90;;;;;;5051958;28;20021;-68
2021/03/10 04:22:21;;;;;;;6.53;3.47;;;15.20;99.90;;;;;;5052756;28;20070;-67
2021/03/10 04:24:46;;;;;;;6.50;3.65;;;15.20;99.90;;;;;;5052692;28;20503;-67
2021/03/10 04:27:15;;;;;;;5.75;3.90;;;15.20;99.90;;;;;;5052725;28;20055;-67
2021/03/10 04:29:41;;;;;;;5.40;3.40;;;15.20;99.90;;;;;;5052572;28;20025;-68
2021/03/10 04:32:07;;;;;;;5.90;3.50;;;15.20;99.90;;;;;;5052088;28;20511;-67
2021/03/10 04:34:33;;;;;;;6.75;3.97;;;15.20;99.90;;;;;;5052466;28;20025;-68
2021/03/10 04:36:59;;;;;;;9.13;3.65;;;15.20;99.90;;;;;;5052568;28;20029;-66
2021/03/10 04:39:24;;;;;;;5.15;3.83;;;15.10;99.90;;;;;;5052113;28;20033;-68
2021/03/10 04:41:50;;;;;;;6.68;4.00;;;15.10;99.90;;;;;;5052384;28;20033;-68
2021/03/10 04:44:15;;;;;;;5.07;3.72;;;15.10;99.90;;;;;;5052309;28;20052;-69
2021/03/10 04:46:41;;;;;;;5.60;3.72;;;15.10;99.90;;;;;;5052540;28;20033;-69
2021/03/10 04:49:09;;;;;;;4.70;3.30;;;15.10;99.90;;;;;;5051951;28;20024;-67
2021/03/10 04:51:35;;;;;;;5.30;3.17;;;15.10;99.90;;;;;;5052001;28;20502;-69
2021/03/10 04:54:00;;;;;;;4.28;3.45;;;15.10;99.90;;;;;;5052244;28;20021;-70
2021/03/10 04:56:26;;;;;;;4.22;3.15;;;15.10;99.90;;;;;;5052166;28;20021;-69
2021/03/10 04:58:51;;;;;;;6.97;3.85;;;15.00;99.90;;;;;;5051837;28;20362;-67
2021/03/10 05:01:17;;;;;;;6.80;3.47;;;15.00;99.90;;;;;;5052085;28;20404;-67
2021/03/10 05:03:43;;;;;;;5.25;3.60;;;15.00;99.90;;;;;;5052308;28;20032;-67
2021/03/10 05:06:08;;;;;;;5.63;3.70;;;15.00;99.90;;;;;;5052187;28;20029;-67
2021/03/10 05:08:34;;;;;;;5.60;3.72;;;15.00;99.90;;;;;;5051880;28;20108;-68
2021/03/10 05:11:00;;;;;;;4.90;3.40;;;15.00;99.90;;;;;;5051508;28;20032;-68
2021/03/10 05:13:25;;;;;;;4.97;3.30;;;15.00;99.90;;;;;;5051884;28;20029;-67
2021/03/10 05:15:51;;;;;;;5.28;3.55;;;15.00;99.90;;;;;;5051976;28;20025;-66
2021/03/10 05:18:16;;;;;;;5.70;3.70;;;15.00;99.90;;;;;;5051873;28;20024;-67
2021/03/10 05:20:42;;;;;;;7.93;3.80;;;15.00;99.90;;;;;;5051802;28;20374;-67
2021/03/10 05:23:07;;;;;;;7.93;4.55;;;15.00;99.90;;;;;;5051832;28;20108;-67
2021/03/10 05:25:33;;;;;;;5.05;3.28;;;15.00;99.90;;;;;;5051831;28;20381;-67
2021/03/10 05:27:59;;;;;;;5.93;3.83;;;15.00;99.90;;;;;;5051657;28;20021;-67
2021/03/10 05:30:24;;;;;;;7.93;4.05;;;14.90;99.90;;;;;;5051316;28;20029;-67
2021/03/10 05:32:50;;;;;;;4.07;3.53;;;15.00;99.90;;;;;;5053498;28;20056;-67
2021/03/10 05:35:15;;;;;;;5.00;3.63;;;15.00;99.90;;;;;;5055847;28;20052;-65
2021/03/10 05:37:41;;;;;;;7.13;3.75;;;15.00;99.90;;;;;;5056136;28;20025;-65
2021/03/10 05:40:08;;;;;;;5.07;3.13;;;14.90;99.90;;;;;;5055562;28;20051;-65
2021/03/10 05:42:37;;;;;;;4.90;3.47;;;14.90;99.90;;;;;;5055644;28;20025;-66
2021/03/10 05:45:04;;;;;;;6.45;4.43;;;14.90;99.90;;;;;;5055725;28;20033;-68
2021/03/10 05:47:29;;;;;;;6.43;3.92;;;14.90;99.90;;;;;;5055595;28;20082;-69
2021/03/10 05:49:55;;;;;;;4.70;3.40;;;14.90;99.90;;;;;;5055155;28;20111;-67
2021/03/10 05:52:22;;;;;;;6.25;3.75;;;14.90;99.90;;;;;;5055589;28;20046;-67
2021/03/10 05:54:51;;;;;;;5.35;3.72;;;14.90;99.90;;;;;;5055590;28;20053;-67
2021/03/10 05:57:17;;;;;;;5.85;3.72;;;14.80;99.90;;;;;;5055423;28;20504;-65
2021/03/10 05:59:43;;;;;;;6.35;3.95;;;14.80;99.90;;;;;;5055442;28;20033;-67
2021/03/10 06:02:09;;;;;;;6.07;3.78;;;14.80;99.90;;;;;;5055128;28;20526;-68
2021/03/10 06:04:43;;;;;;;4.78;3.70;;;14.80;99.90;;;;;;5055558;28;20420;-69
2021/03/10 06:07:19;;;;;;;5.32;3.75;;;14.80;99.90;;;;;;5055540;28;20028;-70
2021/03/10 06:10:04;;;;;;;4.63;3.50;;;14.80;99.90;;;;;;5055543;28;20100;-69
2021/03/10 06:12:43;;;;;;;4.18;3.47;;;14.70;99.90;;;;;;5054851;28;20037;-69
2021/03/10 06:15:10;;;;;;;7.38;3.60;;;14.80;99.90;;;;;;5055280;28;20384;-69
2021/03/10 06:17:47;;;;;;;5.28;3.97;;;14.70;99.90;;;;;;5054973;28;20033;-70
2021/03/10 06:20:26;;;;;;;4.95;4.13;;;14.70;99.90;;;;;;5055072;28;20024;-69
2021/03/10 06:22:53;;;;;;;5.07;3.75;;;14.70;99.90;;;;;;5055291;28;20036;-67
2021/03/10 06:25:19;;;;;;;5.88;4.00;;;14.70;99.90;;;;;;5055132;28;20082;-66
2021/03/10 06:27:56;;;;;;;12.20;4.07;;;14.70;99.90;;;;;;5055020;28;20025;-68
2021/03/10 06:30:37;;;;;;;7.68;4.00;;;14.80;99.90;;;;;;5054298;28;20055;-67
2021/03/10 06:33:04;;;;;;;12.13;3.50;;;14.90;99.90;;;;;;5054280;28;20029;-65
2021/03/10 06:35:32;;;;;;;11.90;2.83;;;14.90;99.90;;;;;;5053989;28;20029;-65
2021/03/10 06:38:14;;;;;;;10.60;3.40;;;14.80;99.90;;;;;;5054538;28;20037;-63
2021/03/10 06:41:06;;;;;;;7.18;2.95;;;14.90;99.90;;;;;;5054452;28;20052;-63
2021/03/10 06:43:36;;;;;;;7.68;3.00;;;15.00;99.60;;;;;;5050702;28;20120;-67
2021/03/10 06:46:18;;;;;;;6.00;2.70;;;15.00;99.30;;;;;;5061803;28;20538;-62
2021/03/10 06:48:54;;;;;;;3.78;2.70;;;15.00;98.70;;;;;;5074464;28;20068;-65
2021/03/10 06:51:20;;;;;;;11.25;6.30;;;15.10;98.20;;;;;;5048625;28;20477;-63
2021/03/10 06:53:47;;;;;;;11.18;7.95;;;14.60;97.20;;;;;;5054378;28;20021;-62
2021/03/10 06:56:29;;;;;;;11.73;8.07;;;13.70;96.90;;;;;;5054297;28;20033;-61
2021/03/10 06:59:05;;;;;;;10.35;7.88;;;13.40;97.00;;;;;;5053755;28;20033;-64
2021/03/10 07:01:40;;;;;;;15.88;9.13;;;13.20;97.60;;;;;;5045012;28;20377;-64
2021/03/10 07:04:11;;;;;;;12.35;9.00;;;13.10;97.20;;;;;;5051912;28;20047;-63
2021/03/10 07:06:38;;;;;;;19.20;9.73;;;13.00;96.90;;;;;;5053924;28;20029;-66
2021/03/10 07:09:10;;;;;;;11.48;8.32;;;12.90;96.80;;;;;;5054105;28;20031;-63
2021/03/10 07:11:37;;;;;;;10.85;6.93;;;13.10;96.90;;;;;;5044946;28;20068;-64
2021/03/10 07:14:03;;;;;;;10.02;7.18;;;13.60;97.40;;;;;;5061924;28;20100;-63
2021/03/10 07:16:33;;;;;;;10.68;7.20;;;13.90;97.20;;;;;;5074060;28;20031;-64
2021/03/10 07:19:00;;;;;;;10.93;6.38;;;14.00;96.90;;;;;;5058231;28;20025;-63
2021/03/10 07:21:41;;;;;;;11.10;6.78;;;14.20;97.00;;;;;;5053150;28;20044;-64
2021/03/10 07:24:16;;;;;;;9.70;6.35;;;14.20;97.10;;;;;;5053980;28;20380;-64
2021/03/10 07:26:43;;;;;;;8.45;5.88;;;14.20;96.90;;;;;;5053255;28;20048;-67
2021/03/10 07:29:11;;;;;;;7.68;3.95;;;14.30;97.20;;;;;;5052705;28;20029;-69
2021/03/10 07:31:37;;;;;;;9.25;3.35;;;14.70;97.50;;;;;;5052916;28;20040;-72
2021/03/10 07:34:03;;;;;;;6.82;3.00;;;15.70;96.40;;;;;;5053622;28;20025;-67
2021/03/10 07:36:40;;;;;;;3.58;2.65;;;16.10;95.70;;;;;;5053221;28;20036;-62
2021/03/10 07:39:24;;;;;;;4.57;2.90;;;16.20;95.70;;;;;;5052714;28;20537;-61
2021/03/10 07:41:51;;;;;;;6.88;2.88;;;16.20;95.90;;;;;;5053422;28;20044;-62
2021/03/10 07:44:20;;;;;;;7.18;2.70;;;15.90;96.30;;;;;;5052983;28;20029;-62
2021/03/10 07:46:47;;;;;;;6.32;4.15;;;15.70;96.30;;;;;;5051599;28;20031;-63
2021/03/10 07:49:16;;;;;;;7.53;3.83;;;15.60;96.40;;;;;;5057236;28;20029;-62
2021/03/10 07:51:41;;;;;;;5.60;3.58;;;15.50;96.30;;;;;;5051490;28;20124;-61
2021/03/10 07:54:23;;;;;;;7.63;3.42;;;15.80;95.70;;;;;;5052726;28;20110;-62
2021/03/10 07:56:50;;;;;;;4.90;3.17;;;16.00;96.00;;;;;;5052489;28;20044;-60
2021/03/10 07:59:17;;;;;;;8.48;3.20;;;16.00;95.60;;;;;;5051594;28;20473;-61
2021/03/10 08:01:43;;;;;;;5.15;3.15;;;15.90;95.70;;;;;;5052812;28;20377;-62
2021/03/10 08:04:19;;;;;;;6.03;3.22;;;15.90;95.70;;;;;;5060463;28;20395;-59
2021/03/10 08:06:49;;;;;;;4.18;2.90;;;15.80;95.70;;;;;;5060319;28;20043;-61
2021/03/10 08:09:17;;;;;;;5.85;2.80;;;15.80;95.70;;;;;;5052539;28;20032;-61
2021/03/10 08:11:45;;;;;;;4.38;2.50;;;16.00;96.00;;;;;;5051311;28;20065;-61
2021/03/10 08:14:15;;;;;;;4.13;2.45;;;17.00;94.70;;;;;;5051543;28;20036;-60
2021/03/10 08:16:44;;;;;;;4.07;2.28;;;17.90;93.80;;;;;;5052502;28;20099;-60
2021/03/10 08:19:11;;;;;;;4.38;2.08;;;18.80;93.10;;;;;;5052714;28;20071;-60
2021/03/10 08:21:47;;;;;;;3.65;2.00;;;19.40;92.60;;;;;;5052678;28;20035;-60
2021/03/10 08:24:13;;;;;;;3.10;1.80;;;19.90;92.20;;;;;;5052877;28;20029;-61
2021/03/10 08:26:40;;;;;;;2.72;1.85;;;20.30;91.90;;;;;;5052688;28;20100;-61
2021/03/10 08:29:06;;;;;;;4.00;1.88;;;20.60;91.70;;;;;;5051790;28;20502;-62
2021/03/10 08:31:44;;;;;;;5.18;1.98;;;20.90;91.60;;;;;;5052154;28;20066;-60
2021/03/10 08:34:10;;;;;;;3.10;1.90;;;21.20;91.50;;;;;;5052711;28;20021;-61
2021/03/10 08:36:35;;;;;;;3.60;1.80;;;21.40;91.40;;;;;;5052670;28;20544;-60
2021/03/10 08:39:28;;;;;;;4.05;1.70;;;21.70;91.40;;;;;;5052295;28;20424;-61
2021/03/10 08:41:55;;;;;;;4.38;1.90;;;21.90;91.50;;;;;;5050386;28;20079;-61
2021/03/10 08:44:23;;;;;;;2.35;1.35;;;22.10;91.10;;;;;;5052919;28;20025;-61
2021/03/10 08:46:51;;;;;;;3.67;1.35;;;22.30;91.00;;;;;;5052295;28;20489;-61
2021/03/10 08:49:31;;;;;;;4.63;1.63;;;22.60;90.90;;;;;;5052115;28;20118;-61
2021/03/10 08:52:03;;;;;;;2.50;1.48;;;22.80;90.80;;;;;;5032408;28;20037;-61
2021/03/10 08:54:29;;;;;;;3.83;1.63;;;23.00;90.70;;;;;;5032473;28;20032;-61
2021/03/10 08:56:54;;;;;;;3.38;1.40;;;23.10;90.80;;;;;;5032722;28;20072;-61
2021/03/10 08:59:20;;;;;;;3.53;1.50;;;23.30;90.80;;;;;;5032253;28;20378;-59
2021/03/10 09:01:51;;;;;;;2.10;1.50;;;23.60;90.80;;;;;;5051642;28;20041;-61
2021/03/10 09:04:26;;;;;;;4.60;1.60;;;23.80;90.60;;;;;;5052258;28;20021;-64
2021/03/10 09:06:55;;;;;;;2.75;1.23;;;23.90;90.60;;;;;;5052197;28;20461;-62
2021/03/10 09:09:21;;;;;;;1.65;1.13;;;24.20;90.60;;;;;;5051323;28;20079;-62
2021/03/10 09:11:48;;;;;;;3.10;1.40;;;24.40;90.60;;;;;;5051928;28;20469;-62
2021/03/10 09:14:14;;;;;;;2.67;1.45;;;23.60;91.50;;;;;;5051976;28;20040;-62
2021/03/10 09:16:51;;;;;;;1.88;1.33;;;23.40;92.10;;;;;;5051963;28;20032;-62
2021/03/10 09:19:48;;;;;;;2.53;1.13;;;23.90;91.80;;;;;;5051371;28;20029;-62
2021/03/10 09:22:22;;;;;;;3.25;1.35;;;24.40;91.80;;;;;;5051377;28;20115;-61
2021/03/10 09:25:28;;;;;;;3.35;1.40;;;23.50;93.00;;;;;;5051872;28;20144;-61
2021/03/10 09:28:12;;;;;;;2.47;1.30;;;23.60;93.10;;;;;;5010048;28;20037;-61
2021/03/10 09:30:49;;;;;;;2.00;1.33;;;24.30;92.20;;;;;;5010189;28;20034;-62
2021/03/10 09:33:22;;;;;;;3.90;1.65;;;23.70;93.20;;;;;;5038338;28;20037;-61
2021/03/10 09:35:58;;;;;;;2.65;1.40;;;23.30;93.60;;;;;;5051645;28;20025;-61
2021/03/10 09:38:33;;;;;;;3.03;1.58;;;23.90;93.20;;;;;;5051697;28;20025;-63
2021/03/10 09:41:00;;;;;;;3.20;1.60;;;23.90;93.40;;;;;;5051725;28;20059;-61
2021/03/10 09:43:29;;;;;;;3.67;1.30;;;23.10;94.40;;;;;;5032042;28;20377;-61
2021/03/10 09:45:57;;;;;;;2.38;1.40;;;23.60;94.00;;;;;;5031968;28;20021;-61
2021/03/10 09:48:35;;;;;;;3.42;1.60;;;24.20;93.40;;;;;;5034881;28;20039;-62
2021/03/10 09:51:02;;;;;;;3.67;1.70;;;23.50;95.10;;;;;;5051584;28;20091;-62
2021/03/10 09:53:28;;;;;;;2.35;1.30;;;23.20;95.00;;;;;;5050765;28;20040;-62
2021/03/10 09:56:04;;;;;;;2.15;1.33;;;24.00;94.20;;;;;;5051533;28;20029;-62
2021/03/10 09:58:30;;;;;;;4.65;1.65;;;23.80;94.60;;;;;;5051682;28;20037;-62
2021/03/10 10:01:01;;;;;;;3.30;1.42;;;23.10;96.00;;;;;;5051580;28;20025;-62
2021/03/10 10:03:28;;;;;;;3.72;1.70;;;23.70;95.00;;;;;;5051761;28;20028;-64
2021/03/10 10:06:07;;;;;;;9.82;1.70;;;23.90;94.50;;;;;;5051377;28;20025;-62
2021/03/10 10:08:38;;;;;;;3.20;1.77;;;23.20;96.10;;;;;;5051222;28;20465;-61
2021/03/10 10:11:08;;;;;;;2.78;1.60;;;23.30;95.40;;;;;;5050917;28;20072;-61
2021/03/10 10:13:33;;;;;;;2.92;2.00;;;23.90;94.80;;;;;;5051341;28;20043;-62
2021/03/10 10:15:59;;;;;;;3.08;2.05;;;23.30;96.20;;;;;;5051784;28;20021;-62
2021/03/10 10:18:25;;;;;;;3.58;1.40;;;23.00;96.20;;;;;;5052587;28;20083;-63
2021/03/10 10:20:51;;;;;;;4.20;2.28;;;23.90;95.40;;;;;;5054611;28;20032;-64
2021/03/10 10:23:17;;;;;;;3.05;2.30;;;23.70;96.10;;;;;;5053406;28;20465;-62
2021/03/10 10:25:43;;;;;;;2.42;1.85;;;23.10;97.00;;;;;;5054825;28;20033;-62
2021/03/10 10:28:09;;;;;;;3.45;2.10;;;23.40;96.10;;;;;;5054999;28;20017;-62
2021/03/10 10:30:35;;;;;;;4.78;2.35;;;24.00;95.30;;;;;;5054684;28;20039;-63
2021/03/10 10:33:00;;;;;;;2.85;2.17;;;23.50;96.80;;;;;;5055421;28;20033;-61
2021/03/10 10:35:26;;;;;;;3.50;2.17;;;22.90;97.30;;;;;;5054906;28;20027;-61
2021/03/10 10:37:52;;;;;;;3.92;2.20;;;23.60;96.10;;;;;;5054888;28;20029;-61
2021/03/10 10:40:20;;;;;;;4.25;2.40;;;23.80;96.40;;;;;;5054541;28;20021;-61
2021/03/10 10:42:46;;;;;;;4.90;2.80;;;23.20;97.10;;;;;;5054419;28;20033;-62
2021/03/10 10:45:12;;;;;;;3.63;2.70;;;23.00;96.80;;;;;;5054445;28;20033;-62
2021/03/10 10:47:39;;;;;;;4.50;2.88;;;23.90;95.80;;;;;;5054759;28;20029;-62
2021/03/10 10:50:06;;;;;;;5.03;2.75;;;23.50;96.80;;;;;;5054431;28;20052;-61
2021/03/10 10:52:33;;;;;;;3.78;2.88;;;23.00;97.10;;;;;;5054889;28;20049;-61
2021/03/10 10:54:59;;;;;;;4.38;2.45;;;23.30;96.50;;;;;;5054627;28;20025;-62
2021/03/10 10:57:25;;;;;;;5.20;2.83;;;23.90;95.70;;;;;;5054517;28;20036;-62
2021/03/10 10:59:51;;;;;;;5.13;3.38;;;23.40;96.60;;;;;;5054437;28;20033;-62
2021/03/10 11:02:16;;;;;;;4.95;3.08;;;22.90;97.20;;;;;;5052901;28;20025;-62
2021/03/10 11:04:42;;;;;;;3.88;3.15;;;23.50;96.40;;;;;;5054452;28;20366;-62
2021/03/10 11:07:09;;;;;;;4.75;3.33;;;23.80;96.30;;;;;;5054173;28;20075;-63
2021/03/10 11:09:36;;;;;;;6.38;3.75;;;23.30;96.70;;;;;;5053341;28;20062;-63
2021/03/10 11:12:02;;;;;;;5.05;3.88;;;22.90;97.00;;;;;;5052420;28;20500;-62
2021/03/10 11:14:28;;;;;;;5.95;4.05;;;23.70;95.80;;;;;;5053466;28;20036;-63
2021/03/10 11:16:56;;;;;;;5.32;3.97;;;23.60;96.10;;;;;;5053768;28;20037;-62
2021/03/10 11:19:22;;;;;;;9.27;6.55;;;23.00;96.60;;;;;;5052964;28;20477;-59
2021/03/10 11:21:48;;;;;;;8.57;6.75;;;22.60;91.30;;;;;;5053857;28;20104;-60
2021/03/10 11:24:14;;;;;;;8.50;6.53;;;22.00;88.50;;;;;;5053895;28;20128;-60
2021/03/10 11:26:40;;;;;;;7.57;5.85;;;21.90;87.50;;;;;;5053417;28;20489;-62
2021/03/10 11:29:06;;;;;;;8.10;6.63;;;21.80;87.40;;;;;;5052729;28;20037;-63
2021/03/10 11:31:33;;;;;;;7.82;6.05;;;21.90;87.00;;;;;;5051766;28;20082;-62
2021/03/10 11:33:58;;;;;;;7.72;5.85;;;21.60;87.40;;;;;;5052445;28;20119;-64
2021/03/10 11:36:24;;;;;;;7.68;6.15;;;21.30;88.30;;;;;;5052498;28;20013;-65
2021/03/10 11:38:50;;;;;;;9.30;6.43;;;21.00;89.10;;;;;;5051387;28;20098;-64
2021/03/10 11:41:15;;;;;;;7.63;5.88;;;20.80;89.90;;;;;;5052337;28;20027;-63
2021/03/10 11:43:41;;;;;;;7.93;5.57;;;20.60;90.30;;;;;;5052314;28;20468;-62
2021/03/10 11:46:07;;;;;;;11.60;6.68;;;20.40;90.70;;;;;;5052200;28;20028;-64
2021/03/10 11:48:32;;;;;;;9.35;6.93;;;20.30;90.80;;;;;;5050257;28;20095;-67
2021/03/10 11:50:58;;;;;;;8.43;6.43;;;20.20;91.00;;;;;;5052876;28;20381;-65
2021/03/10 11:53:23;;;;;;;9.98;7.35;;;20.10;91.20;;;;;;5050703;28;20416;-62
2021/03/10 11:55:49;;;;;;;7.43;6.55;;;20.00;91.40;;;;;;5052003;28;20009;-62
2021/03/10 11:58:15;;;;;;;8.45;7.00;;;20.00;91.50;;;;;;5051615;28;20526;-62
2021/03/10 12:00:41;;;;;;;7.72;6.93;;;19.90;91.60;;;;;;5049036;28;20017;-62
2021/03/10 12:03:07;;;;;;;8.40;6.63;;;19.90;91.70;;;;;;5051771;28;20087;-62
2021/03/10 12:05:32;;;;;;;9.30;7.25;;;19.80;91.80;;;;;;5051646;28;20025;-62
2021/03/10 12:07:59;;;;;;;9.40;7.00;;;19.80;92.20;;;;;;5051678;28;20028;-60
2021/03/10 12:10:24;;;;;;;9.98;7.15;;;19.70;92.00;;;;;;5051717;28;20740;-62
2021/03/10 12:12:50;;;;;;;8.95;7.13;;;19.70;92.00;;;;;;5051931;28;20033;-62
2021/03/10 12:15:16;;;;;;;8.90;7.18;;;19.60;92.10;;;;;;5051430;28;20429;-62
2021/03/10 12:17:42;;;;;;;11.07;7.55;;;19.50;92.00;;;;;;5049935;28;20025;-63
2021/03/10 12:20:08;;;;;;;9.15;7.38;;;19.40;92.10;;;;;;5051458;28;20488;-61
2021/03/10 12:22:34;;;;;;;9.38;7.72;;;19.40;92.20;;;;;;5051198;28;20106;-62
2021/03/10 12:25:00;;;;;;;10.63;8.05;;;19.30;92.30;;;;;;5052408;28;20544;-60
2021/03/10 12:27:26;;;;;;;9.88;8.32;;;19.20;92.30;;;;;;5046626;28;20059;-60
2021/03/10 12:30:01;;;;;;;10.73;8.35;;;19.10;92.40;;;;;;5051297;28;20021;-61
2021/03/10 12:32:27;;;;;;;10.88;8.50;;;19.00;92.40;;;;;;5045418;28;20538;-63
2021/03/10 12:34:54;;;;;;;11.68;8.27;;;19.00;92.80;;;;;;5051334;28;20032;-62
2021/03/10 12:37:20;;;;;;;12.25;8.30;;;18.90;92.50;;;;;;5050771;28;20036;-61
2021/03/10 12:39:47;;;;;;;10.80;8.95;;;18.80;92.60;;;;;;5051177;28;20016;-62
2021/03/10 12:42:12;;;;;;;10.90;9.27;;;18.80;92.60;;;;;;5050501;28;20036;-61
2021/03/10 12:44:43;;;;;;;9.98;7.85;;;18.70;92.50;;;;;;5051187;28;20399;-61
2021/03/10 12:47:09;;;;;;;8.77;6.15;;;19.00;92.80;;;;;;5052062;28;20116;-61
2021/03/10 12:49:35;;;;;;;8.98;5.90;;;21.40;90.60;;;;;;5052417;28;20109;-60
2021/03/10 12:52:00;;;;;;;8.27;5.90;;;22.30;89.70;;;;;;5052215;28;20504;-60